Terminal Aerodrome Forecast
Issued by NWS Charleston, WV

Current Version | Previous Version | Text Only | Print | Product List | Glossary Off
Versions: 1 2 3 4 5 6 7 8 9 10 11 12 13 14 15 16 17 18 19 20 21 22 23 24

287
FTUS41 KRLX 240922 AAA
TAFBKW
TAF AMD
KBKW 240922Z 2409/2506 27009KT P6SM BKN009 OVC015
     FM241200 29007KT P6SM OVC008
     FM241800 28007KT P6SM SCT020=

USA.gov is the U.S. government's official web portal to all federal, state and local government web resources and services.